• Join FlightAware (Why Join?)
  • Login
  • US Flag 
05:52AM EDT


 

Airport Tracker/Info


-or-


 

Live Flight TrackerFlight Track Log ✈ N560HM ✈ 23-Mar-2014 ✈ KAGC - KTEB

Flight Track Log - Related Links

Times and Time Zones

All times are in EDT time to prevent confusion due to time zone crossing. See the N560HM flight status page for this flight to view local times or setup timezone preferences in your user account.

Time Position Orientation Groundspeed Altitude Reporting Facility
EDT Latitude Longitude Course Direction KTS MPH feet Rate Location/Type
05:04PM 40.3897 -79.9797 81° East 243 280 2,900  Level Cleveland Center
05:06PM 40.4211 -79.9106 59° Northeast 220 253 4,900 2,640 Climbing Cleveland Center
05:07PM 40.4394 -79.8239 74° East 251 289 8,400 2,940 Climbing Cleveland Center
05:08PM 40.4614 -79.7133 75° East 305 351 11,000 3,000 Climbing Cleveland Center
05:09PM 40.4917 -79.5664 75° East 346 398 14,700 3,180 Climbing Cleveland Center
05:10PM 40.5221 -79.2064 81° East  Level FlightAware Approximate
05:10PM 40.5186 -79.4344 75° East 370 426 17,600  Level Cleveland Center
05:11PM 40.5475 -79.2903 75° East 391 450 20,000 2,340 Climbing Cleveland Center
05:12PM 40.5758 -79.1453 76° East 408 470 22,500 2,400 Climbing Cleveland Center
05:13PM 40.6050 -78.9981 75° East 425 489 25,000 2,040 Climbing Cleveland Center
05:14PM 40.6375 -78.8411 75° East 434 499 26,800 960 Climbing Cleveland Center
05:15PM 40.6900 -78.6458 70° East 476 548 27,000 60 Climbing Cleveland Center
05:16PM 40.7481 -78.4825 65° Northeast 497 572 27,000  Level Cleveland Center
05:17PM 40.8061 -78.3164 65° Northeast 505 581 27,000  Level Cleveland Center
05:18PM 40.8633 -78.1497 66° East 506 582 27,000  Level Cleveland Center
05:19PM 40.9339 -77.9489 65° Northeast 507 583 27,000  Level Cleveland Center
05:20PM 41.0061 -77.7903 59° Northeast 510 587 27,000  Level Cleveland Center
05:21PM 41.0781 -77.6308 59° Northeast 509 586 27,000  Level Cleveland Center
05:22PM 41.1492 -77.4700 60° Northeast 510 587 27,000  Level Cleveland Center
05:23PM 41.2333 -77.2761 60° Northeast 510 587 27,000  Level Cleveland Center
05:24PM 41.3028 -77.1150 60° Northeast 505 581 27,000  Level Cleveland Center
05:25PM 41.3739 -76.9522 60° Northeast 509 586 27,000  Level Cleveland Center
05:26PM 41.4447 -76.7897 60° Northeast 509 586 27,000  Level Cleveland Center
05:27PM 41.5039 -76.6219 65° Northeast 506 582 27,000  Level Cleveland Center
05:28PM 41.4717 -76.3942 101° East 459 528 27,000 -660 Level New York Center
05:29PM 41.4250 -76.2325 111° Southeast 459 528 25,600 -1,860 Descending New York Center
05:30PM 41.3819 -76.0797 111° Southeast 454 522 23,300 -2,100 Descending New York Center
05:31PM 41.3442 -75.9469 111° Southeast 443 510 21,500 -1,920 Descending New York Center
05:32PM 41.3044 -75.8003 110° East 429 494 19,500 -1,800 Descending New York Center
05:33PM 41.2589 -75.6450 111° Southeast 415 478 18,000 -1,140 Descending New York Center
05:34PM 41.2161 -75.5178 114° Southeast 393 452 17,300 -1,800 Descending New York Center
05:35PM 41.1717 -75.3822 113° Southeast 388 447 14,400 -2,880 Descending New York Center
05:36PM 41.1322 -75.2694 115° Southeast 383 441 11,600 -2,640 Descending New York Center
05:37PM 41.0947 -75.1569 114° Southeast 355 409 9,200 -2,400 Descending New York Center
05:38PM 41.0572 -75.0472 114° Southeast 308 354 6,900 -1,620 Descending New York Center
05:39PM 41.0247 -74.9625 117° Southeast 294 338 6,000 -960 Descending New York Center
05:40PM 40.9781 -74.8636 122° Southeast 283 326 5,000 -960 Descending New York Center
05:41PM 40.9453 -74.7872 120° Southeast 278 320 4,100 -1,020 Descending New York Center
05:42PM 40.9067 -74.6972 120° Southeast 264 304 3,000 -600 Descending New York Center
05:43PM 40.8739 -74.6239 121° Southeast 264 304 3,000  Level New York Center
05:44PM 40.8500 -74.5667 119° Southeast 257 296 3,000  Level New York TRACON
05:45PM 40.8167 -74.5000 123° Southeast 252 290 3,000  Level New York TRACON
05:46PM 40.7833 -74.4167 118° Southeast 237 273 3,000 -240 Level New York TRACON
05:47PM 40.7500 -74.3500 123° Southeast 210 242 2,600 -540 Descending New York TRACON
05:48PM 40.7167 -74.2833 123° Southeast 199 229 2,000 -540 Descending New York TRACON
05:49PM 40.7500 -74.2167 57° Northeast 186 214 1,600 -300 Descending New York TRACON
05:50PM 40.7833 -74.1833 37° Northeast 174 200 1,500 -60 Descending New York TRACON
05:51PM 40.8000 -74.1333 66° East 160 184 1,500 -300 Level New York TRACON
05:52PM 40.8167 -74.0833 66° East 154 177 1,000 -540 Descending New York TRACON
05:54PM 40.8500 -74.0500 79° East  Level FlightAware Approximate
06:01PM 40.8501 -74.0608 79° East  Level Estimated
06:02PM 40.8501 -74.0608 254° West  Level Estimated